createdAt,value
2023-04-13T00:07:07.432Z,14.20
2023-04-13T00:15:15.623Z,14.30
2023-04-13T00:23:21.152Z,14.10
2023-04-13T00:31:29.756Z,14.40
2023-04-13T00:39:35.282Z,14.50
2023-04-13T00:47:46.924Z,14.60
2023-04-13T00:55:53.534Z,14.60
2023-04-13T01:04:01.912Z,14.70
2023-04-13T01:12:14.476Z,14.70
2023-04-13T01:20:23.361Z,14.50
2023-04-13T01:28:33.618Z,14.30
2023-04-13T01:36:41.805Z,14.40
2023-04-13T01:44:51.553Z,14.30
2023-04-13T01:53:00.119Z,14.50
2023-04-13T02:01:10.005Z,14.60
2023-04-13T02:09:15.896Z,14.60
2023-04-13T02:17:25.808Z,14.40
2023-04-13T02:25:31.599Z,14.20
2023-04-13T02:33:40.157Z,14.30
2023-04-13T02:41:45.857Z,14.20
2023-04-13T02:49:59.692Z,14.30
2023-04-13T02:58:12.606Z,14.30
2023-04-13T03:06:26.209Z,14.30
2023-04-13T03:14:36.992Z,14.50
2023-04-13T03:22:48.261Z,14.20
2023-04-13T03:30:53.948Z,14.00
2023-04-13T03:39:02.145Z,13.80
2023-04-13T03:47:12.978Z,13.60
2023-04-13T03:55:21.438Z,13.70
2023-04-13T04:03:29.295Z,13.30
2023-04-13T04:11:41.342Z,13.40
2023-04-13T04:19:48.823Z,13.70
2023-04-13T04:28:02.867Z,13.90
2023-04-13T04:36:10.236Z,14.00
2023-04-13T04:44:25.466Z,14.00
2023-04-13T04:52:33.252Z,14.20
2023-04-13T05:00:43.736Z,14.40
2023-04-13T05:08:53.248Z,14.70
2023-04-13T05:17:01.690Z,14.70
2023-04-13T05:25:13.513Z,14.90
2023-04-13T05:33:22.541Z,15.20
2023-04-13T05:41:34.082Z,15.30
2023-04-13T05:49:42.541Z,15.70
2023-04-13T05:57:49.412Z,15.70
2023-04-13T06:05:58.404Z,16.30
2023-04-13T06:14:03.937Z,16.70
2023-04-13T06:22:12.025Z,17.40
2023-04-13T06:30:19.657Z,17.90
2023-04-13T06:38:31.040Z,18.90
2023-04-13T06:46:42.289Z,19.60
2023-04-13T06:54:54.722Z,20.10
2023-04-13T07:03:14.004Z,20.50
2023-04-13T07:11:23.139Z,20.90
2023-04-13T07:19:28.881Z,21.20
2023-04-13T07:28:12.746Z,21.10
2023-04-13T07:36:21.158Z,20.10
2023-04-13T07:44:29.720Z,20.80
2023-04-13T07:52:38.666Z,19.10
2023-04-13T08:00:44.300Z,20.10
2023-04-13T08:08:53.050Z,20.30
2023-04-13T08:16:58.864Z,20.80
2023-04-13T08:25:08.100Z,20.00
2023-04-13T08:33:13.764Z,19.80
2023-04-13T08:41:24.590Z,19.90
2023-04-13T08:49:35.029Z,20.40
2023-04-13T08:58:15.398Z,20.90
2023-04-13T09:06:27.105Z,21.50
2023-04-13T09:14:38.164Z,22.20
2023-04-13T09:22:44.164Z,22.90
2023-04-13T09:30:52.307Z,22.60
2023-04-13T09:38:59.277Z,22.60
2023-04-13T09:47:08.940Z,22.10
2023-04-13T09:55:19.784Z,22.70
2023-04-13T10:03:28.080Z,23.70
2023-04-13T10:11:34.077Z,22.80
2023-04-13T10:19:46.213Z,23.50
2023-04-13T10:28:07.686Z,23.80
2023-04-13T10:36:15.999Z,24.70
2023-04-13T10:44:21.417Z,26.60
2023-04-13T10:52:29.845Z,29.50
2023-04-13T11:00:44.550Z,33.70
2023-04-13T11:09:03.221Z,39.40
2023-04-13T11:17:11.763Z,48.30
2023-04-13T11:25:20.607Z,51.70
2023-04-13T11:33:30.362Z,53.90
2023-04-13T11:41:43.486Z,53.30
2023-04-13T11:49:50.732Z,49.00
2023-04-13T11:57:59.043Z,45.30
2023-04-13T12:06:05.920Z,44.00
2023-04-13T12:22:52.340Z,49.90
2023-04-13T12:31:10.268Z,54.00
2023-04-13T12:39:15.925Z,53.90
2023-04-13T12:47:26.371Z,53.10
2023-04-13T12:55:32.306Z,53.20
2023-04-13T13:03:40.365Z,52.40
2023-04-13T13:11:45.843Z,50.10
2023-04-13T13:19:54.909Z,40.90
2023-04-13T13:44:35.078Z,26.80
2023-04-13T13:52:59.256Z,25.90
2023-04-13T14:01:10.443Z,26.20
2023-04-13T14:09:19.107Z,25.60
2023-04-13T14:17:24.552Z,25.80
2023-04-13T14:25:32.731Z,24.80
2023-04-13T14:33:38.185Z,24.60
2023-04-13T14:41:47.468Z,24.00
2023-04-13T14:49:52.848Z,23.90
2023-04-13T14:58:01.898Z,23.90
2023-04-13T15:06:08.281Z,23.30
2023-04-13T15:14:16.541Z,22.60
2023-04-13T15:22:21.967Z,22.60
2023-04-13T15:30:31.402Z,22.60
2023-04-13T15:38:36.857Z,22.40
2023-04-13T15:46:44.891Z,21.50
2023-04-13T15:54:50.429Z,21.60
2023-04-13T16:02:59.338Z,21.90
2023-04-13T16:11:05.101Z,21.80
2023-04-13T16:19:13.970Z,21.60
2023-04-13T16:27:19.467Z,21.20
2023-04-13T16:35:27.878Z,20.90
2023-04-13T16:43:33.287Z,20.60
2023-04-13T16:51:41.482Z,20.70
2023-04-13T16:59:47.187Z,20.80
2023-04-13T17:07:55.324Z,20.80
2023-04-13T17:16:01.602Z,20.30
2023-04-13T17:24:10.779Z,20.30
2023-04-13T17:32:16.290Z,20.10
2023-04-13T17:40:24.592Z,20.30
2023-04-13T17:48:30.211Z,20.30
2023-04-13T17:56:38.393Z,20.30
2023-04-13T18:04:43.968Z,20.30
2023-04-13T18:12:52.861Z,20.00
2023-04-13T18:20:58.240Z,20.10
2023-04-13T18:29:06.467Z,19.90
2023-04-13T18:37:11.960Z,19.60
2023-04-13T18:45:20.323Z,19.80
2023-04-13T18:53:25.743Z,19.60
2023-04-13T19:01:35.929Z,19.30
2023-04-13T19:09:44.909Z,19.30
2023-04-13T19:17:53.346Z,19.00
2023-04-13T19:25:58.884Z,19.10
2023-04-13T19:34:07.877Z,18.90
2023-04-13T19:42:13.315Z,18.60
2023-04-13T19:50:22.675Z,18.40
2023-04-13T19:58:29.164Z,18.30
2023-04-13T20:06:37.383Z,17.60
2023-04-13T20:14:43.170Z,17.70
2023-04-13T20:22:51.338Z,17.30
2023-04-13T20:30:56.786Z,17.50
2023-04-13T20:39:05.103Z,17.60
2023-04-13T20:47:13.611Z,17.80
2023-04-13T20:55:22.184Z,17.70
2023-04-13T21:03:32.253Z,17.40
2023-04-13T21:11:41.080Z,17.10
2023-04-13T21:19:46.577Z,16.60
2023-04-13T21:27:54.595Z,16.40
2023-04-13T21:36:51.452Z,15.90
2023-04-13T21:44:30.059Z,16.40
2023-04-13T21:52:35.861Z,16.60
2023-04-13T22:00:43.997Z,16.60
2023-04-13T22:08:49.475Z,16.90
2023-04-13T22:16:59.614Z,16.70
2023-04-13T22:25:05.071Z,16.80
2023-04-13T22:33:13.188Z,16.90
2023-04-13T22:41:18.950Z,17.00
2023-04-13T22:49:27.366Z,16.40
2023-04-13T22:57:32.816Z,16.20
2023-04-13T23:05:40.875Z,15.90
2023-04-13T23:13:47.002Z,15.90
2023-04-13T23:21:55.068Z,16.00
2023-04-13T23:30:00.662Z,16.10
2023-04-13T23:38:08.716Z,16.30
2023-04-13T23:46:14.190Z,16.30
2023-04-13T23:54:22.367Z,16.40
